createdAt,value
2022-10-22T00:02:25.962Z,13.80
2022-10-22T00:04:53.896Z,13.90
2022-10-22T00:07:21.134Z,13.90
2022-10-22T00:09:47.934Z,13.90
2022-10-22T00:12:15.916Z,13.90
2022-10-22T00:14:43.273Z,13.90
2022-10-22T00:17:11.601Z,13.90
2022-10-22T00:19:38.953Z,13.90
2022-10-22T00:22:05.894Z,13.90
2022-10-22T00:24:33.947Z,13.90
2022-10-22T00:27:00.781Z,14.00
2022-10-22T00:29:27.561Z,14.00
2022-10-22T00:34:22.258Z,14.10
2022-10-22T00:36:50.157Z,14.10
2022-10-22T00:39:19.344Z,14.10
2022-10-22T00:41:48.207Z,14.10
2022-10-22T00:44:52.512Z,14.10
2022-10-22T00:47:19.953Z,14.10
2022-10-22T00:49:47.911Z,14.10
2022-10-22T00:52:14.816Z,14.10
2022-10-22T00:54:42.497Z,14.10
2022-10-22T00:57:09.635Z,14.10
2022-10-22T00:59:38.016Z,14.00
2022-10-22T01:02:04.771Z,14.00
2022-10-22T01:04:31.501Z,14.00
2022-10-22T01:06:58.139Z,14.00
2022-10-22T01:09:35.363Z,14.00
2022-10-22T01:12:08.138Z,14.00
2022-10-22T01:15:07.934Z,14.00
2022-10-22T01:17:43.314Z,13.90
2022-10-22T01:20:44.265Z,13.90
2022-10-22T01:23:36.279Z,13.90
2022-10-22T01:26:19.923Z,13.90
2022-10-22T01:29:12.911Z,13.90
2022-10-22T01:31:54.959Z,13.90
2022-10-22T01:34:23.072Z,13.90
2022-10-22T01:36:52.508Z,13.90
2022-10-22T01:39:20.376Z,13.90
2022-10-22T01:41:47.211Z,13.90
2022-10-22T01:44:29.134Z,13.80
2022-10-22T01:47:09.850Z,13.80
2022-10-22T01:50:15.314Z,13.80
2022-10-22T01:52:45.875Z,13.80
2022-10-22T01:55:34.239Z,13.80
2022-10-22T01:58:28.182Z,13.80
2022-10-22T02:01:06.408Z,13.70
2022-10-22T02:03:41.889Z,13.80
2022-10-22T02:06:15.862Z,13.80
2022-10-22T02:08:43.254Z,13.80
2022-10-22T02:11:12.520Z,13.80
2022-10-22T02:13:47.149Z,13.80
2022-10-22T02:16:18.736Z,13.80
2022-10-22T02:18:48.401Z,13.80
2022-10-22T02:21:16.247Z,13.80
2022-10-22T02:23:43.918Z,13.80
2022-10-22T02:26:30.123Z,13.70
2022-10-22T02:29:14.009Z,13.70
2022-10-22T02:31:43.554Z,13.70
2022-10-22T02:34:14.578Z,13.60
2022-10-22T02:36:46.638Z,13.60
2022-10-22T02:39:19.069Z,13.60
2022-10-22T02:41:45.842Z,13.50
2022-10-22T02:44:12.423Z,13.50
2022-10-22T02:46:40.195Z,13.50
2022-10-22T02:49:07.476Z,13.50
2022-10-22T02:51:34.449Z,13.50
2022-10-22T02:54:01.028Z,13.40
2022-10-22T02:56:27.612Z,13.40
2022-10-22T02:58:54.234Z,13.40
2022-10-22T03:01:21.492Z,13.40
2022-10-22T03:03:48.174Z,13.30
2022-10-22T03:06:15.141Z,13.30
2022-10-22T03:08:41.960Z,13.30
2022-10-22T03:11:08.707Z,13.30
2022-10-22T03:13:35.334Z,13.30
2022-10-22T03:16:02.096Z,13.20
2022-10-22T03:18:28.810Z,13.20
2022-10-22T03:21:20.838Z,13.10
2022-10-22T03:23:48.168Z,13.10
2022-10-22T03:26:15.222Z,13.00
2022-10-22T03:28:42.297Z,13.00
2022-10-22T03:31:08.940Z,13.10
2022-10-22T03:33:35.509Z,13.10
2022-10-22T03:36:02.326Z,13.10
2022-10-22T03:38:29.852Z,13.20
2022-10-22T03:40:56.560Z,13.20
2022-10-22T03:43:23.279Z,13.30
2022-10-22T03:45:49.855Z,13.40
2022-10-22T03:48:16.495Z,13.40
2022-10-22T03:50:43.061Z,13.50
2022-10-22T03:53:10.634Z,13.40
2022-10-22T03:55:38.223Z,13.40
2022-10-22T03:58:05.559Z,13.50
2022-10-22T04:00:32.649Z,13.50
2022-10-22T04:02:59.241Z,13.50
2022-10-22T04:05:25.885Z,13.50
2022-10-22T04:07:52.561Z,13.50
2022-10-22T04:10:19.211Z,13.60
2022-10-22T04:12:48.205Z,13.60
2022-10-22T04:15:14.896Z,13.60
2022-10-22T04:17:41.664Z,13.60
2022-10-22T04:20:09.234Z,13.60
2022-10-22T04:22:36.717Z,13.60
2022-10-22T04:25:04.665Z,13.60
2022-10-22T04:27:32.766Z,13.60
2022-10-22T04:29:59.384Z,13.70
2022-10-22T04:32:29.051Z,13.60
2022-10-22T04:34:55.642Z,13.60
2022-10-22T04:37:22.219Z,13.60
2022-10-22T04:39:49.065Z,13.60
2022-10-22T04:42:15.658Z,13.60
2022-10-22T04:44:42.255Z,13.60
2022-10-22T04:47:08.927Z,13.60
2022-10-22T04:49:35.515Z,13.60
2022-10-22T04:52:02.175Z,13.60
2022-10-22T04:54:32.184Z,13.60
2022-10-22T04:56:59.875Z,13.50
2022-10-22T04:59:26.570Z,13.60
2022-10-22T05:01:53.174Z,13.60
2022-10-22T05:04:19.835Z,13.60
2022-10-22T05:06:47.263Z,13.60
2022-10-22T05:09:17.961Z,13.50
2022-10-22T05:11:48.387Z,13.60
2022-10-22T05:14:17.570Z,13.50
2022-10-22T05:19:17.158Z,13.50
2022-10-22T05:21:44.082Z,13.50
2022-10-22T05:24:10.742Z,13.50
2022-10-22T05:26:37.355Z,13.50
2022-10-22T05:29:03.934Z,13.50
2022-10-22T05:31:30.517Z,13.40
2022-10-22T05:33:57.155Z,13.50
2022-10-22T05:36:23.893Z,13.40
2022-10-22T05:38:50.933Z,13.40
2022-10-22T05:41:23.110Z,13.40
2022-10-22T05:43:50.241Z,13.50
2022-10-22T05:46:22.479Z,13.50
2022-10-22T05:48:55.508Z,13.50
2022-10-22T05:51:22.967Z,13.50
2022-10-22T05:53:53.376Z,13.50
2022-10-22T05:56:20.049Z,13.50
2022-10-22T05:58:46.735Z,13.50
2022-10-22T06:01:20.092Z,13.50
2022-10-22T06:03:47.355Z,13.50
2022-10-22T06:06:46.247Z,13.40
2022-10-22T06:09:27.163Z,13.40
2022-10-22T06:11:54.728Z,13.40
2022-10-22T06:14:21.971Z,13.40
2022-10-22T06:16:49.351Z,13.40
2022-10-22T06:19:18.345Z,13.40
2022-10-22T06:21:46.002Z,13.40
2022-10-22T06:24:13.024Z,13.40
2022-10-22T06:26:40.100Z,13.50
2022-10-22T06:29:07.202Z,13.50
2022-10-22T06:31:36.813Z,13.60
2022-10-22T06:34:05.800Z,13.60
2022-10-22T06:36:32.873Z,13.60
2022-10-22T06:38:59.493Z,13.60
2022-10-22T06:41:28.802Z,13.70
2022-10-22T06:43:57.264Z,13.70
2022-10-22T06:46:24.621Z,13.80
2022-10-22T06:48:56.771Z,13.80
2022-10-22T06:51:23.677Z,13.80
2022-10-22T06:53:50.319Z,13.90
2022-10-22T06:56:20.514Z,13.90
2022-10-22T06:58:50.794Z,13.90
2022-10-22T07:01:19.405Z,13.90
2022-10-22T07:03:46.367Z,13.90
2022-10-22T07:06:14.906Z,14.00
2022-10-22T07:08:42.398Z,14.00
2022-10-22T07:11:17.831Z,14.00
2022-10-22T07:13:45.379Z,14.00
2022-10-22T07:16:12.826Z,14.10
2022-10-22T07:18:41.604Z,14.10
2022-10-22T07:21:09.994Z,14.20
2022-10-22T07:23:37.072Z,14.20
2022-10-22T07:26:07.259Z,14.20
2022-10-22T07:28:35.438Z,14.20
2022-10-22T07:31:02.408Z,14.20
2022-10-22T07:33:29.015Z,14.10
2022-10-22T07:36:00.790Z,14.10
2022-10-22T07:38:28.677Z,14.10
2022-10-22T07:40:55.787Z,14.10
2022-10-22T07:43:22.401Z,14.20
2022-10-22T07:45:49.086Z,14.30
2022-10-22T07:48:15.987Z,14.30
2022-10-22T07:53:14.312Z,14.40
2022-10-22T07:55:41.250Z,14.40
2022-10-22T07:58:07.981Z,14.40
2022-10-22T08:00:34.915Z,14.40
2022-10-22T08:03:01.620Z,14.60
2022-10-22T08:05:28.251Z,14.60
2022-10-22T08:07:54.862Z,14.80
2022-10-22T08:10:21.624Z,14.90
2022-10-22T08:12:48.291Z,15.00
2022-10-22T08:15:14.919Z,15.20
2022-10-22T08:17:41.702Z,15.30
2022-10-22T08:20:09.015Z,15.40
2022-10-22T08:22:35.595Z,15.50
2022-10-22T08:25:02.227Z,15.40
2022-10-22T08:27:28.892Z,15.30
2022-10-22T08:29:55.537Z,15.30
2022-10-22T08:32:22.240Z,15.30
2022-10-22T08:34:48.899Z,15.30
2022-10-22T08:37:17.032Z,15.30
2022-10-22T08:39:44.498Z,15.30
2022-10-22T08:42:39.436Z,15.40
2022-10-22T08:45:17.077Z,15.30
2022-10-22T08:48:02.424Z,15.30
2022-10-22T08:50:45.988Z,15.20
2022-10-22T08:53:16.442Z,15.20
2022-10-22T08:55:44.294Z,15.10
2022-10-22T08:58:32.047Z,15.10
2022-10-22T09:01:05.795Z,15.10
2022-10-22T09:03:49.890Z,15.00
2022-10-22T09:06:24.131Z,15.10
2022-10-22T09:08:51.790Z,15.00
2022-10-22T09:11:37.645Z,15.10
2022-10-22T09:14:04.995Z,15.00
2022-10-22T09:16:54.557Z,15.10
2022-10-22T09:19:40.052Z,15.10
2022-10-22T09:22:25.672Z,15.10
2022-10-22T09:25:01.927Z,15.00
2022-10-22T09:27:31.100Z,15.00
2022-10-22T09:29:57.872Z,15.00
2022-10-22T09:32:25.859Z,15.00
2022-10-22T09:34:56.829Z,15.10
2022-10-22T09:37:27.858Z,15.10
2022-10-22T09:39:56.652Z,15.20
2022-10-22T09:42:23.703Z,15.20
2022-10-22T09:44:55.704Z,15.20
2022-10-22T09:48:01.057Z,15.30
2022-10-22T09:50:42.624Z,15.40
2022-10-22T09:53:43.215Z,15.40
2022-10-22T09:56:17.385Z,15.40
2022-10-22T09:58:49.085Z,15.50
2022-10-22T10:01:32.058Z,15.60
2022-10-22T10:04:16.606Z,15.70
2022-10-22T10:06:44.652Z,15.80
2022-10-22T10:09:24.146Z,15.90
2022-10-22T10:12:11.919Z,16.00
2022-10-22T10:14:44.496Z,16.10
2022-10-22T10:17:48.086Z,16.00
2022-10-22T10:20:20.747Z,16.10
2022-10-22T10:23:20.598Z,16.20
2022-10-22T10:26:10.736Z,16.30
2022-10-22T10:28:53.727Z,16.50
2022-10-22T10:31:43.540Z,16.60
2022-10-22T10:34:17.782Z,16.60
2022-10-22T10:37:17.764Z,16.60
2022-10-22T10:40:03.565Z,16.90
2022-10-22T10:42:36.562Z,17.40
2022-10-22T10:45:15.723Z,17.60
2022-10-22T10:48:01.275Z,17.70
2022-10-22T10:50:53.530Z,17.90
2022-10-22T10:53:42.853Z,18.10
2022-10-22T10:56:47.274Z,18.20
2022-10-22T10:59:19.200Z,18.50
2022-10-22T11:02:00.588Z,18.80
2022-10-22T11:04:57.153Z,19.00
2022-10-22T11:07:34.693Z,19.00
2022-10-22T11:10:16.285Z,18.80
2022-10-22T11:12:51.291Z,19.00
2022-10-22T11:15:17.840Z,19.00
2022-10-22T11:17:47.304Z,18.90
2022-10-22T11:20:13.887Z,18.80
2022-10-22T11:23:18.147Z,18.70
2022-10-22T11:25:49.834Z,18.50
2022-10-22T11:28:36.594Z,18.40
2022-10-22T11:31:18.126Z,18.20
2022-10-22T11:34:35.313Z,18.20
2022-10-22T11:37:04.760Z,18.40
2022-10-22T11:39:50.579Z,18.50
2022-10-22T11:42:22.837Z,18.80
2022-10-22T11:45:13.749Z,19.20
2022-10-22T11:47:56.851Z,19.50
2022-10-22T11:50:46.955Z,19.60
2022-10-22T11:53:13.552Z,19.40
2022-10-22T11:55:48.057Z,19.20
2022-10-22T11:58:42.015Z,18.90
2022-10-22T12:01:08.571Z,18.60
2022-10-22T12:03:35.226Z,18.40
2022-10-22T12:06:15.462Z,18.20
2022-10-22T12:08:50.424Z,18.20
2022-10-22T12:11:24.382Z,18.00
2022-10-22T12:14:11.791Z,18.00
2022-10-22T12:16:55.561Z,18.00
2022-10-22T12:19:22.940Z,18.00
2022-10-22T12:21:54.672Z,17.90
2022-10-22T12:24:23.591Z,17.80
2022-10-22T12:26:52.579Z,17.70
2022-10-22T12:29:23.625Z,17.70
2022-10-22T12:31:50.435Z,17.60
2022-10-22T12:34:21.169Z,17.60
2022-10-22T12:36:49.294Z,17.60
2022-10-22T12:39:19.834Z,17.50
2022-10-22T12:41:46.922Z,17.60
2022-10-22T12:44:16.738Z,17.70
2022-10-22T12:46:46.183Z,17.90
2022-10-22T12:49:28.390Z,18.10
2022-10-22T12:51:54.973Z,18.40
2022-10-22T12:54:29.334Z,18.70
2022-10-22T12:56:58.507Z,19.00
2022-10-22T12:59:35.050Z,19.30
2022-10-22T13:02:02.483Z,19.30
2022-10-22T13:04:37.607Z,19.20
2022-10-22T13:07:12.685Z,19.10
2022-10-22T13:09:39.506Z,19.00
2022-10-22T13:12:08.110Z,18.90
2022-10-22T13:14:38.030Z,18.80
2022-10-22T13:17:15.877Z,18.70
2022-10-22T13:19:54.479Z,18.70
2022-10-22T13:22:52.030Z,18.70
2022-10-22T13:25:26.153Z,18.60
2022-10-22T13:27:54.742Z,18.40
2022-10-22T13:30:27.249Z,18.20
2022-10-22T13:32:57.346Z,18.10
2022-10-22T13:35:28.566Z,18.00
2022-10-22T13:37:55.194Z,17.90
2022-10-22T13:40:22.002Z,17.80
2022-10-22T13:42:48.689Z,17.80
2022-10-22T13:45:15.466Z,17.80
2022-10-22T13:47:45.525Z,17.70
2022-10-22T13:50:15.455Z,17.70
2022-10-22T13:52:51.326Z,17.90
2022-10-22T13:55:17.885Z,17.90
2022-10-22T13:57:45.105Z,18.10
2022-10-22T14:00:14.084Z,18.30
2022-10-22T14:02:41.748Z,18.40
2022-10-22T14:05:09.544Z,18.40
2022-10-22T14:07:37.106Z,18.20
2022-10-22T14:10:14.027Z,18.20
2022-10-22T14:12:41.342Z,18.10
2022-10-22T14:15:09.730Z,18.10
2022-10-22T14:17:36.373Z,18.10
2022-10-22T14:20:03.222Z,18.20
2022-10-22T14:22:30.784Z,18.20
2022-10-22T14:24:57.490Z,18.20
2022-10-22T14:27:24.198Z,18.30
2022-10-22T14:29:50.894Z,18.20
2022-10-22T14:32:21.799Z,18.20
2022-10-22T14:34:48.454Z,18.10
2022-10-22T14:37:17.891Z,18.10
2022-10-22T14:39:46.980Z,18.00
2022-10-22T14:42:14.462Z,17.90
2022-10-22T14:44:41.108Z,17.80
2022-10-22T14:47:07.740Z,17.70
2022-10-22T14:49:34.441Z,17.60
2022-10-22T14:52:01.032Z,17.50
2022-10-22T14:54:27.708Z,17.40
2022-10-22T14:56:54.333Z,17.30
2022-10-22T14:59:20.934Z,17.20
2022-10-22T15:01:47.544Z,17.20
2022-10-22T15:04:14.127Z,17.10
2022-10-22T15:06:40.723Z,17.10
2022-10-22T15:09:07.325Z,17.00
2022-10-22T15:11:33.952Z,17.00
2022-10-22T15:14:00.537Z,17.00
2022-10-22T15:16:27.268Z,16.90
2022-10-22T15:18:53.828Z,16.80
2022-10-22T15:21:22.826Z,16.80
2022-10-22T15:23:49.944Z,16.70
2022-10-22T15:26:17.629Z,16.70
2022-10-22T15:28:44.240Z,16.60
2022-10-22T15:31:14.189Z,16.60
2022-10-22T15:33:42.377Z,16.50
2022-10-22T15:36:15.401Z,16.50
2022-10-22T15:38:42.205Z,16.40
2022-10-22T15:41:11.227Z,16.40
2022-10-22T15:43:37.842Z,16.40
2022-10-22T15:46:16.616Z,16.30
2022-10-22T15:48:43.760Z,16.40
2022-10-22T15:51:15.769Z,16.30
2022-10-22T15:53:42.839Z,16.30
2022-10-22T15:56:14.037Z,16.20
2022-10-22T15:58:40.633Z,16.20
2022-10-22T16:01:13.046Z,16.10
2022-10-22T16:03:41.014Z,16.10
2022-10-22T16:06:09.436Z,16.10
2022-10-22T16:08:36.805Z,16.00
2022-10-22T16:11:03.620Z,15.90
2022-10-22T16:13:30.919Z,15.90
2022-10-22T16:15:57.548Z,15.90
2022-10-22T16:18:24.160Z,15.80
2022-10-22T16:20:51.015Z,15.80
2022-10-22T16:23:18.861Z,15.70
2022-10-22T16:25:46.295Z,15.70
2022-10-22T16:28:12.927Z,15.70
2022-10-22T16:30:39.768Z,15.60
2022-10-22T16:33:07.550Z,15.60
2022-10-22T16:35:34.347Z,15.60
2022-10-22T16:38:01.044Z,15.50
2022-10-22T16:40:29.084Z,15.50
2022-10-22T16:42:55.631Z,15.40
2022-10-22T16:45:22.179Z,15.50
2022-10-22T16:47:49.176Z,15.40
2022-10-22T16:50:16.130Z,15.40
2022-10-22T16:52:42.742Z,15.30
2022-10-22T16:55:09.749Z,15.30
2022-10-22T16:57:36.405Z,15.30
2022-10-22T17:00:05.525Z,15.30
2022-10-22T17:02:32.090Z,15.20
2022-10-22T17:04:58.673Z,15.20
2022-10-22T17:07:25.261Z,15.10
2022-10-22T17:09:51.844Z,15.10
2022-10-22T17:12:18.468Z,15.00
2022-10-22T17:14:45.015Z,14.90
2022-10-22T17:17:11.613Z,14.90
2022-10-22T17:19:38.842Z,14.80
2022-10-22T17:22:05.711Z,14.80
2022-10-22T17:24:33.089Z,14.70
2022-10-22T17:26:59.785Z,14.70
2022-10-22T17:29:26.426Z,14.70
2022-10-22T17:31:53.251Z,14.50
2022-10-22T17:34:19.891Z,14.50
2022-10-22T17:36:46.583Z,14.50
2022-10-22T17:39:17.233Z,14.50
2022-10-22T17:41:43.893Z,14.40
2022-10-22T17:44:12.101Z,14.40
2022-10-22T17:46:38.931Z,14.30
2022-10-22T17:49:12.130Z,14.20
2022-10-22T17:51:38.675Z,14.20
2022-10-22T17:54:07.526Z,14.20
2022-10-22T17:56:37.314Z,14.20
2022-10-22T17:59:04.301Z,14.20
2022-10-22T18:01:33.946Z,14.20
2022-10-22T18:04:04.216Z,14.20
2022-10-22T18:06:31.342Z,14.20
2022-10-22T18:08:58.260Z,14.20
2022-10-22T18:11:27.102Z,14.20
2022-10-22T18:13:56.512Z,14.20
2022-10-22T18:16:24.072Z,14.10
2022-10-22T18:18:55.441Z,14.10
2022-10-22T18:21:25.034Z,14.00
2022-10-22T18:23:51.806Z,14.00
2022-10-22T18:26:22.953Z,13.90
2022-10-22T18:28:53.159Z,13.80
2022-10-22T18:31:22.743Z,13.70
2022-10-22T18:33:50.172Z,13.60
2022-10-22T18:36:20.118Z,13.60
2022-10-22T18:38:51.376Z,13.40
2022-10-22T18:41:18.602Z,13.40
2022-10-22T18:44:09.879Z,13.30
2022-10-22T18:46:39.145Z,13.30
2022-10-22T18:49:07.116Z,13.20
2022-10-22T18:51:36.699Z,13.20
2022-10-22T18:54:05.778Z,13.00
2022-10-22T18:56:44.836Z,13.00
2022-10-22T18:59:20.469Z,12.90
2022-10-22T19:01:47.277Z,12.90
2022-10-22T19:04:14.473Z,12.90
2022-10-22T19:06:45.301Z,12.90
2022-10-22T19:09:14.068Z,12.80
2022-10-22T19:11:41.954Z,12.80
2022-10-22T19:14:08.949Z,12.70
2022-10-22T19:16:37.645Z,12.70
2022-10-22T19:19:06.705Z,12.60
2022-10-22T19:21:33.540Z,12.50
2022-10-22T19:24:01.190Z,12.50
2022-10-22T19:26:30.641Z,12.40
2022-10-22T19:28:58.704Z,12.40
2022-10-22T19:31:26.586Z,12.30
2022-10-22T19:33:55.973Z,12.30
2022-10-22T19:36:24.454Z,12.20
2022-10-22T19:38:51.885Z,12.10
2022-10-22T19:41:20.459Z,12.10
2022-10-22T19:43:50.358Z,12.00
2022-10-22T19:46:17.413Z,11.90
2022-10-22T19:51:21.264Z,11.80
2022-10-22T19:53:48.664Z,11.80
2022-10-22T19:56:18.950Z,11.80
2022-10-22T19:58:46.144Z,11.70
2022-10-22T20:01:14.525Z,11.70
2022-10-22T20:03:41.857Z,11.60
2022-10-22T20:06:10.516Z,11.50
2022-10-22T20:08:38.048Z,11.50
2022-10-22T20:11:07.019Z,11.50
2022-10-22T20:13:35.177Z,11.40
2022-10-22T20:16:02.138Z,11.40
2022-10-22T20:18:28.898Z,11.40
2022-10-22T20:20:55.575Z,11.30
2022-10-22T20:23:22.196Z,11.30
2022-10-22T20:25:48.799Z,11.30
2022-10-22T20:28:15.559Z,11.20
2022-10-22T20:30:43.978Z,11.10
2022-10-22T20:33:10.758Z,11.10
2022-10-22T20:35:37.951Z,11.00
2022-10-22T20:38:06.453Z,11.00
2022-10-22T20:40:33.681Z,10.90
2022-10-22T20:43:01.517Z,10.90
2022-10-22T20:45:28.417Z,10.90
2022-10-22T20:48:02.169Z,10.90
2022-10-22T20:50:31.354Z,10.80
2022-10-22T20:52:58.591Z,10.80
2022-10-22T20:55:25.327Z,10.70
2022-10-22T20:57:51.958Z,10.70
2022-10-22T21:00:18.608Z,10.70
2022-10-22T21:02:45.292Z,10.60
2022-10-22T21:05:11.929Z,10.60
2022-10-22T21:07:38.900Z,10.60
2022-10-22T21:10:06.290Z,10.60
2022-10-22T21:12:32.908Z,10.60
2022-10-22T21:14:59.533Z,10.50
2022-10-22T21:17:26.349Z,10.50
2022-10-22T21:19:53.022Z,10.50
2022-10-22T21:22:19.626Z,10.40
2022-10-22T21:24:46.260Z,10.40
2022-10-22T21:27:12.837Z,10.50
2022-10-22T21:29:39.427Z,10.50
2022-10-22T21:32:06.015Z,10.40
2022-10-22T21:34:38.033Z,10.40
2022-10-22T21:37:05.819Z,10.40
2022-10-22T21:39:32.494Z,10.40
2022-10-22T21:41:59.158Z,10.40
2022-10-22T21:44:25.816Z,10.30
2022-10-22T21:46:52.564Z,10.30
2022-10-22T21:49:19.313Z,10.30
2022-10-22T21:51:45.890Z,10.20
2022-10-22T21:54:12.805Z,10.20
2022-10-22T21:56:41.411Z,10.10
2022-10-22T21:59:08.137Z,10.10
2022-10-22T22:01:35.160Z,10.10
2022-10-22T22:04:01.852Z,10.10
2022-10-22T22:06:33.156Z,10.00
2022-10-22T22:09:01.250Z,10.10
2022-10-22T22:11:28.930Z,10.00
2022-10-22T22:13:57.270Z,10.00
2022-10-22T22:16:28.646Z,10.00
2022-10-22T22:19:00.454Z,10.00
2022-10-22T22:21:27.631Z,10.00
2022-10-22T22:23:54.517Z,10.00
2022-10-22T22:26:26.862Z,10.00
2022-10-22T22:28:58.126Z,10.00
2022-10-22T22:31:26.162Z,10.00
2022-10-22T22:33:59.579Z,10.00
2022-10-22T22:36:26.455Z,10.00
2022-10-22T22:38:56.687Z,10.00
2022-10-22T22:41:23.542Z,10.00
2022-10-22T22:43:50.343Z,10.00
2022-10-22T22:46:17.247Z,10.00
2022-10-22T22:48:44.097Z,10.00
2022-10-22T22:51:11.102Z,10.00
2022-10-22T22:53:37.694Z,10.10
2022-10-22T22:56:27.943Z,10.10
2022-10-22T22:58:55.183Z,10.20
2022-10-22T23:01:27.990Z,10.30
2022-10-22T23:03:59.031Z,10.20
2022-10-22T23:06:28.646Z,10.30
2022-10-22T23:08:56.150Z,10.20
2022-10-22T23:11:24.407Z,10.20
2022-10-22T23:14:00.020Z,10.20
2022-10-22T23:16:30.280Z,10.20
2022-10-22T23:18:58.190Z,10.20
2022-10-22T23:21:27.943Z,10.10
2022-10-22T23:23:57.688Z,10.10
2022-10-22T23:26:36.771Z,10.10
2022-10-22T23:29:09.244Z,10.00
2022-10-22T23:31:35.877Z,10.00
2022-10-22T23:34:02.491Z,10.00
2022-10-22T23:36:29.637Z,10.00
2022-10-22T23:38:56.359Z,10.00
2022-10-22T23:41:23.030Z,10.00
2022-10-22T23:43:50.852Z,9.90
2022-10-22T23:46:18.118Z,9.90
2022-10-22T23:48:45.083Z,9.90
2022-10-22T23:51:15.018Z,9.90
2022-10-22T23:53:43.779Z,9.90
2022-10-22T23:56:13.749Z,9.80
2022-10-22T23:58:40.411Z,9.80
